Stowe, Vermont
Current Conditions -  °F | °C
As of 12:54 AM on Wednesday 22 Oct 2014 (Local Time) from KMVL Reporting Station
Overcast Overcast  
Wind Chill:   Ceiling: 1100
Heat Index:   Visibility: 8mi
Dew Point:   Wind: 3mph
Humidity: 93%   Direction: 30°NNE
Pressure: 30.12"   Gusts: NA
Location:  44.47°N, 72.68°W
Report Text: KMVL 220454Z AUTO 03003KT 8SM FEW004 OVC011 08/07 A3012 RMK AO2 RAE21 SLP203 P0001 T00830072 400890033
Loading
Personal Weather Stations






























Interactive Weather Map
Tropical Storm Tracking
New forecast layout! Learn more

10-Day Weather Forecast

Advertisements
Track Severe Weather on mobile